Time;durP1;ratioP1;P1;durP2;ratioP2;P2;SDS_P1;SDS_P2;PMS_P1;PMS_P2;Temp;Humidity;BMP_temperature;BMP_pressure;BME280_temperature;BME280_humidity;BME280_pressure;Samples;Min_cycle;Max_cycle;Signal;HPM_P1;HPM_P2
2021/12/27 00:00:21;;;;;;;65.57;36.22;;;8.30;95.90;;;;;;5019449;28;20045;-77
2021/12/27 00:02:52;;;;;;;68.45;38.40;;;8.30;95.90;;;;;;5023130;28;20010;-74
2021/12/27 00:05:20;;;;;;;65.53;36.75;;;8.20;95.90;;;;;;5013793;28;20042;-74
2021/12/27 00:07:50;;;;;;;71.90;38.28;;;8.30;95.90;;;;;;5013584;28;20032;-78
2021/12/27 00:10:19;;;;;;;72.88;39.15;;;8.30;95.90;;;;;;5029993;28;20051;-73
2021/12/27 00:12:48;;;;;;;58.97;33.33;;;8.30;95.90;;;;;;5011677;28;20030;-79
2021/12/27 00:15:17;;;;;;;67.68;37.03;;;8.30;95.90;;;;;;5013992;28;20400;-76
2021/12/27 00:17:46;;;;;;;66.47;36.55;;;8.30;95.90;;;;;;5010633;28;20114;-76
2021/12/27 00:20:15;;;;;;;74.22;37.90;;;8.30;95.90;;;;;;5020480;28;20042;-79
2021/12/27 00:22:45;;;;;;;72.57;37.72;;;8.30;95.90;;;;;;5008975;28;20029;-78
2021/12/27 00:25:16;;;;;;;69.68;36.70;;;8.40;95.90;;;;;;5004017;28;20030;-80
2021/12/27 00:27:45;;;;;;;69.90;37.80;;;8.30;95.90;;;;;;5014863;28;20040;-73
2021/12/27 00:30:20;;;;;;;78.80;38.63;;;8.30;95.90;;;;;;5014179;28;20027;-78
2021/12/27 00:32:47;;;;;;;69.18;37.42;;;8.30;95.80;;;;;;5018297;28;20041;-78
2021/12/27 00:35:17;;;;;;;80.97;40.58;;;8.30;95.90;;;;;;5036725;28;20071;-76
2021/12/27 00:37:44;;;;;;;78.75;38.55;;;8.30;95.90;;;;;;5020676;28;20026;-77
2021/12/27 00:40:11;;;;;;;76.70;38.28;;;8.30;95.90;;;;;;5032616;28;20026;-79
2021/12/27 00:42:37;;;;;;;76.95;40.10;;;8.30;95.90;;;;;;5014825;28;20048;-78
2021/12/27 00:45:03;;;;;;;82.25;39.97;;;8.30;95.90;;;;;;5015217;28;20057;-78
2021/12/27 00:47:29;;;;;;;81.80;40.63;;;8.30;96.00;;;;;;5016290;28;20094;-77
2021/12/27 00:49:55;;;;;;;78.97;39.22;;;8.30;95.90;;;;;;5014337;28;20010;-77
2021/12/27 00:52:20;;;;;;;78.80;39.80;;;8.40;95.90;;;;;;5012822;28;20041;-72
2021/12/27 00:54:46;;;;;;;80.20;38.95;;;8.40;95.90;;;;;;5015710;28;20042;-78
2021/12/27 00:57:11;;;;;;;72.30;38.42;;;8.30;95.90;;;;;;5016184;28;20018;-77
2021/12/27 00:59:37;;;;;;;72.70;38.50;;;8.40;96.00;;;;;;5017308;28;20041;-74
2021/12/27 01:02:03;;;;;;;75.00;38.55;;;8.40;96.00;;;;;;5034749;28;20030;-75
2021/12/27 01:04:29;;;;;;;70.68;38.17;;;8.40;96.00;;;;;;5041286;28;20022;-77
2021/12/27 01:06:55;;;;;;;69.72;37.20;;;8.40;96.00;;;;;;5016800;28;20041;-79
2021/12/27 01:14:44;;;;;;;74.38;37.92;;;8.40;96.00;;;;;;5018400;28;20086;-79
2021/12/27 01:17:10;;;;;;;65.50;36.45;;;8.40;96.00;;;;;;5014306;28;20065;-77
2021/12/27 01:19:36;;;;;;;77.00;37.55;;;8.50;96.00;;;;;;5009295;28;20042;-78
2021/12/27 01:22:03;;;;;;;62.28;36.28;;;8.40;96.00;;;;;;5017755;28;20042;-76
2021/12/27 01:24:29;;;;;;;62.97;36.45;;;8.40;96.00;;;;;;5020396;28;20034;-78
2021/12/27 01:26:55;;;;;;;77.15;38.28;;;8.40;96.00;;;;;;5009006;28;20025;-73
2021/12/27 01:29:20;;;;;;;69.85;36.50;;;8.50;96.00;;;;;;5018485;28;20045;-78
2021/12/27 01:31:46;;;;;;;66.78;35.30;;;8.50;96.00;;;;;;5018667;28;20033;-77
2021/12/27 01:34:12;;;;;;;60.05;34.95;;;8.50;96.00;;;;;;5017111;28;20021;-78
2021/12/27 01:36:39;;;;;;;63.15;35.67;;;8.40;95.90;;;;;;5018227;28;20023;-78
2021/12/27 01:39:05;;;;;;;70.07;37.05;;;8.40;95.90;;;;;;5023890;28;20037;-77
2021/12/27 01:41:31;;;;;;;66.28;37.97;;;8.50;96.00;;;;;;5021372;28;20021;-74
2021/12/27 01:43:57;;;;;;;56.88;34.50;;;8.50;95.90;;;;;;5011861;28;20030;-77
2021/12/27 01:46:26;;;;;;;60.28;34.58;;;8.50;95.90;;;;;;5017661;28;20041;-77
2021/12/27 01:48:56;;;;;;;53.47;32.13;;;8.50;96.00;;;;;;5024279;28;20018;-74
2021/12/27 01:51:27;;;;;;;57.72;34.03;;;8.50;95.90;;;;;;5024915;28;20045;-77
2021/12/27 01:53:53;;;;;;;55.00;33.03;;;8.50;95.90;;;;;;5030624;28;20154;-78
2021/12/27 01:56:23;;;;;;;60.88;35.10;;;8.50;95.90;;;;;;5011381;28;20083;-78
2021/12/27 01:58:51;;;;;;;54.75;33.95;;;8.50;95.90;;;;;;5020274;28;20349;-78
2021/12/27 02:01:17;;;;;;;49.95;32.20;;;8.50;95.80;;;;;;5021438;28;20060;-77
2021/12/27 02:03:44;;;;;;;57.65;34.22;;;8.50;95.90;;;;;;5015201;28;20030;-77
2021/12/27 02:06:12;;;;;;;57.92;33.10;;;8.50;95.80;;;;;;5016722;28;20134;-80
2021/12/27 02:08:41;;;;;;;59.92;34.90;;;8.50;95.80;;;;;;5012975;28;20023;-77
2021/12/27 02:11:07;;;;;;;58.55;33.65;;;8.50;95.90;;;;;;5021280;28;20038;-73
2021/12/27 02:13:33;;;;;;;64.35;36.30;;;8.40;95.80;;;;;;5018966;28;20019;-76
2021/12/27 02:15:59;;;;;;;64.22;36.88;;;8.40;95.90;;;;;;5018594;28;20033;-77
2021/12/27 02:18:25;;;;;;;67.20;36.22;;;8.40;95.90;;;;;;5029640;28;20022;-76
2021/12/27 02:20:51;;;;;;;70.68;37.47;;;8.50;95.90;;;;;;5020364;28;20018;-79
2021/12/27 02:23:17;;;;;;;68.32;37.08;;;8.40;95.90;;;;;;5020130;28;20026;-73
2021/12/27 02:25:48;;;;;;;72.95;37.75;;;8.50;95.90;;;;;;5040527;28;20025;-74
2021/12/27 02:28:15;;;;;;;63.08;35.53;;;8.50;95.90;;;;;;5033494;28;20058;-76
2021/12/27 02:30:43;;;;;;;65.20;36.50;;;8.50;95.90;;;;;;5019956;28;20022;-78
2021/12/27 02:33:09;;;;;;;67.35;35.85;;;8.50;95.80;;;;;;5016115;28;20101;-79
2021/12/27 02:35:39;;;;;;;72.57;37.35;;;8.50;95.80;;;;;;5024991;28;20029;-78
2021/12/27 02:38:08;;;;;;;65.40;35.28;;;8.40;95.80;;;;;;5017395;28;20021;-78
2021/12/27 02:40:34;;;;;;;72.15;36.20;;;8.40;95.80;;;;;;5043413;28;20034;-74
2021/12/27 02:43:03;;;;;;;78.32;37.72;;;8.40;95.80;;;;;;5026964;28;20038;-75
2021/12/27 02:45:31;;;;;;;72.35;36.35;;;8.40;95.80;;;;;;5017764;28;20022;-77
2021/12/27 02:47:57;;;;;;;79.38;37.17;;;8.50;95.80;;;;;;5014002;28;20051;-77
2021/12/27 02:50:25;;;;;;;76.70;37.50;;;8.50;95.80;;;;;;5027688;28;20014;-74
2021/12/27 02:52:50;;;;;;;67.72;35.03;;;8.40;95.80;;;;;;5046955;28;20014;-78
2021/12/27 02:55:17;;;;;;;78.82;38.58;;;8.50;95.80;;;;;;5020495;28;20036;-78
2021/12/27 02:57:45;;;;;;;76.30;38.30;;;8.50;95.80;;;;;;5025685;28;20022;-73
2021/12/27 03:00:15;;;;;;;82.22;38.33;;;8.50;95.80;;;;;;5029091;28;20033;-78
2021/12/27 03:02:42;;;;;;;77.88;37.20;;;8.50;95.80;;;;;;5022914;28;20058;-77
2021/12/27 03:05:09;;;;;;;76.18;36.75;;;8.40;95.80;;;;;;5032565;28;20023;-77
2021/12/27 03:07:36;;;;;;;76.75;40.33;;;8.40;95.80;;;;;;5018069;28;20034;-80
2021/12/27 03:10:03;;;;;;;80.22;38.92;;;8.40;95.80;;;;;;5018569;28;20029;-74
2021/12/27 03:12:28;;;;;;;78.75;38.90;;;8.40;95.80;;;;;;5031620;28;20010;-77
2021/12/27 03:14:54;;;;;;;88.72;42.38;;;8.40;95.80;;;;;;5019251;28;20065;-76
2021/12/27 03:17:20;;;;;;;78.97;38.92;;;8.40;95.80;;;;;;5016370;28;20029;-78
2021/12/27 03:19:45;;;;;;;79.85;39.05;;;8.40;95.80;;;;;;5016635;28;20030;-80
2021/12/27 03:22:11;;;;;;;86.78;41.97;;;8.40;95.80;;;;;;5022369;28;20077;-75
2021/12/27 03:24:36;;;;;;;84.40;40.33;;;8.40;95.80;;;;;;5019891;28;20838;-75
2021/12/27 03:27:02;;;;;;;88.28;42.25;;;8.40;95.80;;;;;;5018148;28;20138;-76
2021/12/27 03:29:28;;;;;;;93.18;43.83;;;8.40;95.80;;;;;;5018561;28;20437;-74
2021/12/27 03:31:55;;;;;;;91.88;43.92;;;8.40;95.80;;;;;;5015380;28;20021;-76
2021/12/27 03:34:21;;;;;;;95.88;43.05;;;8.40;95.80;;;;;;5024489;28;20094;-78
2021/12/27 03:36:48;;;;;;;96.32;43.03;;;8.40;95.70;;;;;;5023060;28;20019;-72
2021/12/27 03:39:14;;;;;;;88.20;41.25;;;8.40;95.80;;;;;;5021099;28;20082;-78
2021/12/27 03:41:40;;;;;;;90.65;41.88;;;8.30;95.80;;;;;;5015157;28;20039;-76
2021/12/27 03:44:05;;;;;;;94.40;42.30;;;8.40;95.70;;;;;;5021840;28;20050;-76
2021/12/27 03:46:31;;;;;;;93.25;41.63;;;8.40;95.70;;;;;;5015962;28;20226;-78
2021/12/27 03:48:57;;;;;;;93.22;42.08;;;8.40;95.70;;;;;;5021892;28;20037;-73
2021/12/27 03:51:23;;;;;;;104.65;44.83;;;8.40;95.60;;;;;;5015813;28;20045;-73
2021/12/27 03:53:49;;;;;;;116.88;47.85;;;8.40;95.70;;;;;;5032053;28;20033;-77
2021/12/27 03:56:15;;;;;;;112.40;46.75;;;8.30;95.70;;;;;;5030762;28;20032;-77
2021/12/27 03:59:08;;;;;;;122.97;47.40;;;8.30;95.70;;;;;;5024595;28;20025;-77
2021/12/27 04:01:34;;;;;;;119.72;45.72;;;8.30;95.70;;;;;;5019547;28;20026;-79
2021/12/27 04:03:59;;;;;;;105.22;43.47;;;8.30;95.70;;;;;;5038180;28;20069;-74
2021/12/27 04:06:27;;;;;;;97.75;40.20;;;8.30;95.70;;;;;;5035362;28;20026;-79
2021/12/27 04:08:53;;;;;;;87.80;39.63;;;8.30;95.70;;;;;;5022115;28;20022;-78
2021/12/27 04:11:19;;;;;;;82.97;36.60;;;8.20;95.70;;;;;;5014287;28;20041;-78
2021/12/27 04:13:44;;;;;;;77.82;35.53;;;8.20;95.70;;;;;;5022324;28;20037;-78
2021/12/27 04:16:10;;;;;;;67.45;34.47;;;8.20;95.70;;;;;;5010640;28;20030;-73
2021/12/27 04:18:36;;;;;;;67.68;33.30;;;8.20;95.70;;;;;;5028385;28;20025;-78
2021/12/27 04:21:01;;;;;;;63.45;29.70;;;8.20;95.70;;;;;;5015198;28;20038;-76
2021/12/27 04:23:27;;;;;;;60.50;28.63;;;8.20;95.60;;;;;;5013278;28;20022;-79
2021/12/27 04:25:53;;;;;;;70.30;30.27;;;8.20;95.60;;;;;;5027005;28;20023;-79
2021/12/27 04:28:20;;;;;;;60.47;29.20;;;8.20;95.70;;;;;;5027903;28;20058;-79
2021/12/27 04:30:46;;;;;;;65.60;29.17;;;8.20;95.70;;;;;;5016893;28;20042;-76
2021/12/27 04:33:12;;;;;;;60.25;30.58;;;8.20;95.70;;;;;;5016157;28;20153;-73
2021/12/27 04:35:38;;;;;;;60.20;29.55;;;8.10;95.70;;;;;;5015878;28;20025;-78
2021/12/27 04:38:04;;;;;;;60.53;30.55;;;8.20;95.70;;;;;;5016947;28;20090;-76
2021/12/27 04:40:34;;;;;;;69.22;31.20;;;8.20;95.70;;;;;;5017560;28;20029;-74
2021/12/27 04:43:09;;;;;;;76.93;31.45;;;8.20;95.70;;;;;;5015185;28;20097;-78
2021/12/27 04:45:36;;;;;;;77.57;34.28;;;8.20;95.70;;;;;;5006341;28;20097;-78
2021/12/27 04:48:02;;;;;;;84.35;34.53;;;8.20;95.70;;;;;;5005621;28;20022;-77
2021/12/27 04:50:28;;;;;;;85.70;36.10;;;8.20;95.70;;;;;;5011523;28;20040;-79
2021/12/27 04:52:54;;;;;;;85.28;34.30;;;8.20;95.70;;;;;;5018761;28;20022;-80
2021/12/27 04:55:24;;;;;;;85.45;35.63;;;8.20;95.70;;;;;;5027782;28;20019;-79
2021/12/27 04:57:50;;;;;;;88.20;37.10;;;8.20;95.70;;;;;;5033649;28;20031;-78
2021/12/27 05:00:16;;;;;;;95.32;37.72;;;8.30;95.80;;;;;;5019104;28;20046;-79
2021/12/27 05:02:42;;;;;;;94.43;37.30;;;8.30;95.70;;;;;;5021293;28;20026;-78
2021/12/27 05:05:08;;;;;;;88.40;36.85;;;8.30;95.70;;;;;;5017974;28;20057;-79
2021/12/27 05:07:34;;;;;;;77.47;34.25;;;8.30;95.70;;;;;;5016617;28;20057;-73
2021/12/27 05:09:59;;;;;;;92.57;39.38;;;8.30;95.70;;;;;;5015366;28;20046;-78
2021/12/27 05:12:26;;;;;;;91.43;38.03;;;8.30;95.70;;;;;;5016292;28;20026;-72
2021/12/27 05:14:52;;;;;;;91.93;37.08;;;8.30;95.70;;;;;;5030118;28;20106;-78
2021/12/27 05:17:17;;;;;;;81.28;34.60;;;8.30;95.60;;;;;;5016695;28;20030;-78
2021/12/27 05:19:43;;;;;;;82.70;37.20;;;8.30;95.60;;;;;;5022670;28;20046;-73
2021/12/27 05:22:09;;;;;;;79.15;36.60;;;8.40;95.60;;;;;;5018088;28;20054;-73
2021/12/27 05:24:34;;;;;;;73.75;34.78;;;8.30;95.60;;;;;;5014598;28;20026;-79
2021/12/27 05:27:00;;;;;;;85.00;37.63;;;8.30;95.60;;;;;;5021466;28;20038;-78
2021/12/27 05:29:26;;;;;;;68.07;33.72;;;8.40;95.60;;;;;;5018111;28;20038;-78
2021/12/27 05:31:52;;;;;;;65.88;33.40;;;8.40;95.60;;;;;;5013487;28;20018;-78
2021/12/27 05:34:18;;;;;;;66.85;31.15;;;8.30;95.40;;;;;;5013069;28;20022;-79
2021/12/27 05:36:44;;;;;;;54.15;28.25;;;8.30;95.40;;;;;;5013730;28;20022;-76
2021/12/27 05:39:12;;;;;;;52.47;27.33;;;8.30;95.40;;;;;;5014013;28;20029;-77
2021/12/27 05:41:38;;;;;;;45.38;25.75;;;8.30;95.40;;;;;;5024695;28;20014;-78
2021/12/27 05:44:04;;;;;;;44.15;22.38;;;8.30;95.20;;;;;;5017926;28;20057;-77
2021/12/27 05:46:30;;;;;;;39.72;20.17;;;8.20;95.10;;;;;;5015029;28;20037;-73
2021/12/27 05:48:55;;;;;;;38.35;20.38;;;8.10;95.20;;;;;;5017225;28;20058;-77
2021/12/27 05:51:21;;;;;;;35.10;18.80;;;8.10;95.10;;;;;;5017619;28;20074;-79
2021/12/27 05:53:47;;;;;;;34.22;18.13;;;8.10;95.10;;;;;;5016688;28;20023;-77
2021/12/27 05:56:12;;;;;;;36.80;21.15;;;8.10;95.00;;;;;;5026029;28;20033;-79
2021/12/27 05:58:38;;;;;;;35.60;19.35;;;8.10;95.00;;;;;;5026450;28;20021;-77
2021/12/27 06:01:04;;;;;;;34.45;18.52;;;8.10;95.10;;;;;;5024954;28;20109;-74
2021/12/27 06:03:29;;;;;;;35.03;18.73;;;8.10;95.10;;;;;;5020433;28;20038;-77
2021/12/27 06:05:55;;;;;;;32.95;18.15;;;8.10;95.10;;;;;;5025767;28;20053;-77
2021/12/27 06:08:21;;;;;;;33.67;20.42;;;8.10;95.00;;;;;;5020304;28;20033;-79
2021/12/27 06:10:46;;;;;;;41.67;20.90;;;8.10;95.00;;;;;;5019785;28;20322;-78
2021/12/27 06:13:12;;;;;;;37.13;20.35;;;8.10;95.00;;;;;;5019409;28;20023;-78
2021/12/27 06:15:38;;;;;;;34.53;19.95;;;8.00;95.00;;;;;;5021018;28;20034;-73
2021/12/27 06:18:03;;;;;;;38.92;21.40;;;8.00;95.00;;;;;;5028620;28;20042;-76
2021/12/27 06:20:29;;;;;;;41.50;20.45;;;7.90;94.90;;;;;;5019574;28;20038;-76
2021/12/27 06:22:59;;;;;;;37.22;21.13;;;7.90;94.90;;;;;;5019316;28;20077;-77
2021/12/27 06:25:25;;;;;;;39.00;21.75;;;7.90;94.90;;;;;;5032485;28;20037;-73
2021/12/27 06:27:51;;;;;;;38.10;21.33;;;7.80;94.90;;;;;;5022852;28;20102;-77
2021/12/27 06:30:17;;;;;;;40.53;21.80;;;7.80;94.90;;;;;;5039723;28;20033;-75
2021/12/27 06:32:44;;;;;;;42.03;22.08;;;7.80;95.00;;;;;;5023583;28;20019;-77
2021/12/27 06:35:11;;;;;;;41.20;23.15;;;7.80;95.00;;;;;;5017449;28;20018;-76
2021/12/27 06:37:39;;;;;;;39.65;22.67;;;7.80;95.00;;;;;;5041586;28;20094;-75
2021/12/27 06:40:05;;;;;;;34.00;20.27;;;7.80;95.10;;;;;;5028013;28;20037;-77
2021/12/27 06:42:31;;;;;;;38.13;21.60;;;7.70;95.00;;;;;;5019120;28;20108;-75
2021/12/27 06:44:57;;;;;;;39.42;21.40;;;7.80;95.00;;;;;;5021379;28;20046;-74
2021/12/27 06:47:24;;;;;;;36.55;21.90;;;7.70;95.10;;;;;;5020533;28;20038;-73
2021/12/27 06:49:50;;;;;;;38.90;21.92;;;7.80;95.10;;;;;;5030312;28;20049;-77
2021/12/27 06:52:16;;;;;;;39.70;22.42;;;7.80;95.10;;;;;;5029704;28;20093;-77
2021/12/27 06:54:42;;;;;;;37.42;22.38;;;7.80;95.10;;;;;;5028367;28;20037;-78
2021/12/27 06:57:08;;;;;;;38.08;22.92;;;7.80;95.10;;;;;;5021392;28;20026;-76
2021/12/27 06:59:34;;;;;;;41.05;22.67;;;7.80;95.10;;;;;;5023854;28;20032;-75
2021/12/27 07:01:59;;;;;;;36.70;23.30;;;7.90;95.10;;;;;;5020071;28;20033;-75
2021/12/27 07:04:26;;;;;;;37.38;21.65;;;7.90;95.10;;;;;;5021531;28;20923;-78
2021/12/27 07:06:53;;;;;;;37.20;21.85;;;7.90;95.10;;;;;;5014757;28;20034;-78
2021/12/27 07:09:18;;;;;;;34.03;20.67;;;8.00;95.10;;;;;;5019826;28;20030;-73
2021/12/27 07:11:44;;;;;;;35.33;19.30;;;7.90;95.00;;;;;;5034347;28;20037;-78
2021/12/27 07:14:10;;;;;;;39.55;19.48;;;8.00;95.00;;;;;;5032449;28;20014;-77
2021/12/27 07:16:36;;;;;;;37.35;20.98;;;8.10;95.00;;;;;;5018542;28;20038;-76
2021/12/27 07:19:02;;;;;;;37.40;20.90;;;8.10;95.10;;;;;;5020906;28;20018;-75
2021/12/27 07:21:28;;;;;;;35.55;19.95;;;8.10;95.00;;;;;;5022549;28;20017;-73
2021/12/27 07:23:53;;;;;;;37.72;21.95;;;8.10;95.10;;;;;;5032786;28;20050;-73
2021/12/27 07:26:19;;;;;;;39.13;23.90;;;8.20;95.00;;;;;;5008538;28;20046;-76
2021/12/27 07:28:45;;;;;;;44.00;27.27;;;8.20;95.00;;;;;;5016517;28;20078;-76
2021/12/27 07:31:10;;;;;;;42.08;29.83;;;8.30;95.00;;;;;;5016965;28;20086;-75
2021/12/27 07:33:37;;;;;;;35.28;20.95;;;8.30;95.00;;;;;;5017114;28;20022;-77
2021/12/27 07:36:05;;;;;;;39.45;22.48;;;8.40;95.00;;;;;;5021533;28;20029;-73
2021/12/27 07:38:32;;;;;;;37.78;22.70;;;8.40;94.90;;;;;;5019347;28;20029;-78
2021/12/27 07:40:57;;;;;;;35.15;22.20;;;8.40;94.90;;;;;;5024390;28;20073;-77
2021/12/27 07:43:23;;;;;;;38.33;22.65;;;8.40;94.90;;;;;;5021683;28;20022;-78
2021/12/27 07:45:49;;;;;;;40.00;24.10;;;8.40;95.00;;;;;;5015761;28;20049;-73
2021/12/27 07:48:14;;;;;;;41.85;23.35;;;8.40;94.90;;;;;;5024446;28;20041;-77
2021/12/27 07:50:40;;;;;;;40.28;23.20;;;8.50;95.00;;;;;;5012720;28;20102;-74
2021/12/27 07:53:06;;;;;;;42.78;24.70;;;8.50;94.90;;;;;;5040759;28;20034;-77
2021/12/27 07:55:32;;;;;;;38.65;24.38;;;8.50;94.90;;;;;;5014701;28;20018;-79
2021/12/27 07:57:58;;;;;;;39.47;24.13;;;8.50;94.90;;;;;;5010791;28;20029;-78
2021/12/27 08:00:25;;;;;;;38.70;23.80;;;8.50;94.90;;;;;;5007210;28;20094;-75
2021/12/27 08:02:51;;;;;;;39.03;23.60;;;8.60;94.90;;;;;;5010822;28;20015;-77
2021/12/27 08:05:17;;;;;;;36.58;22.85;;;8.50;94.80;;;;;;5041042;28;20037;-76
2021/12/27 08:07:43;;;;;;;38.47;23.13;;;8.50;94.80;;;;;;5007708;28;20019;-79
2021/12/27 08:10:10;;;;;;;39.00;23.52;;;8.60;94.80;;;;;;5009354;28;20034;-78
2021/12/27 08:12:37;;;;;;;37.35;22.52;;;8.50;94.80;;;;;;5010010;28;20257;-77
2021/12/27 08:15:04;;;;;;;36.28;22.70;;;8.60;94.80;;;;;;5009980;28;20039;-76
2021/12/27 08:17:30;;;;;;;40.80;24.02;;;8.60;94.80;;;;;;5006502;28;20274;-78
2021/12/27 08:19:56;;;;;;;34.92;21.90;;;8.60;94.80;;;;;;5023810;28;20019;-73
2021/12/27 08:22:21;;;;;;;35.00;23.05;;;8.60;94.80;;;;;;5005894;28;20034;-77
2021/12/27 08:24:47;;;;;;;39.30;22.83;;;8.60;94.80;;;;;;5011102;28;20027;-75
2021/12/27 08:27:12;;;;;;;36.53;23.52;;;8.60;94.80;;;;;;5006580;28;20037;-74
2021/12/27 08:29:38;;;;;;;37.53;23.27;;;8.70;94.80;;;;;;5009370;28;20030;-78
2021/12/27 08:32:04;;;;;;;40.83;24.90;;;8.70;94.80;;;;;;5015821;28;20041;-75
2021/12/27 08:34:31;;;;;;;42.30;24.98;;;8.70;94.70;;;;;;5006875;28;20057;-77
2021/12/27 08:36:57;;;;;;;42.00;24.63;;;8.70;94.80;;;;;;5007917;28;20038;-74
2021/12/27 08:39:23;;;;;;;40.88;25.52;;;8.70;94.70;;;;;;5008335;28;20017;-74
2021/12/27 08:41:49;;;;;;;40.65;25.38;;;8.80;94.70;;;;;;5013822;28;20085;-74
2021/12/27 08:44:14;;;;;;;39.33;25.70;;;8.80;94.70;;;;;;5007646;28;20030;-74
2021/12/27 08:46:40;;;;;;;40.72;26.33;;;8.80;94.80;;;;;;5013917;28;20049;-74
2021/12/27 08:49:06;;;;;;;39.75;24.85;;;8.90;94.70;;;;;;5007257;28;20033;-71
2021/12/27 08:51:32;;;;;;;37.17;25.77;;;8.90;94.60;;;;;;5009636;28;20030;-73
2021/12/27 08:53:58;;;;;;;37.30;24.85;;;8.90;94.60;;;;;;5008467;28;20034;-72
2021/12/27 08:56:23;;;;;;;38.35;24.02;;;8.90;94.60;;;;;;5002726;28;20023;-74
2021/12/27 08:58:49;;;;;;;38.30;24.60;;;9.00;94.60;;;;;;5006241;28;20033;-73
2021/12/27 09:01:15;;;;;;;35.00;23.92;;;9.00;94.60;;;;;;5009596;28;20018;-73
2021/12/27 09:03:41;;;;;;;37.05;22.70;;;9.00;94.50;;;;;;5006933;28;20046;-70
2021/12/27 09:06:07;;;;;;;37.30;23.73;;;9.10;94.50;;;;;;5010499;28;20066;-73
2021/12/27 09:08:32;;;;;;;37.95;24.20;;;9.10;94.40;;;;;;5019300;28;20011;-73
2021/12/27 09:10:58;;;;;;;31.73;22.23;;;9.10;94.30;;;;;;5006459;28;20026;-71
2021/12/27 09:13:29;;;;;;;38.40;23.02;;;9.10;94.30;;;;;;5004657;28;20082;-75
2021/12/27 09:15:56;;;;;;;33.38;22.10;;;9.10;94.30;;;;;;5002712;28;20038;-72
2021/12/27 09:18:22;;;;;;;33.05;22.08;;;9.10;94.30;;;;;;5004267;28;20089;-73
2021/12/27 09:20:48;;;;;;;33.47;22.23;;;9.10;94.30;;;;;;5010295;28;20018;-73
2021/12/27 09:23:14;;;;;;;34.55;22.55;;;9.10;94.30;;;;;;5013784;28;20029;-73
2021/12/27 09:25:42;;;;;;;32.85;22.42;;;9.20;94.30;;;;;;5005324;28;20059;-72
2021/12/27 09:28:08;;;;;;;35.10;23.63;;;9.20;94.20;;;;;;5010346;28;20018;-72
2021/12/27 09:30:33;;;;;;;32.53;23.02;;;9.20;94.30;;;;;;5012478;28;20022;-72
2021/12/27 09:32:59;;;;;;;31.42;21.67;;;9.20;94.20;;;;;;5018678;28;20022;-73
2021/12/27 09:35:25;;;;;;;33.80;21.40;;;9.20;94.30;;;;;;5013607;28;20025;-70
2021/12/27 09:37:50;;;;;;;33.22;21.80;;;9.20;94.30;;;;;;5017645;28;20070;-72
2021/12/27 09:40:16;;;;;;;34.85;22.10;;;9.20;94.30;;;;;;5024912;28;20019;-71
2021/12/27 09:42:42;;;;;;;31.17;22.83;;;9.30;94.40;;;;;;5017384;28;20026;-71
2021/12/27 09:45:08;;;;;;;35.30;22.35;;;9.30;94.30;;;;;;5016463;28;20045;-74
2021/12/27 09:47:35;;;;;;;31.23;22.02;;;9.30;94.30;;;;;;5006569;28;20015;-74
2021/12/27 09:50:05;;;;;;;33.03;23.05;;;9.30;94.40;;;;;;5007166;28;20058;-71
2021/12/27 09:52:32;;;;;;;32.83;22.05;;;9.40;94.30;;;;;;5007121;28;20037;-73
2021/12/27 09:54:59;;;;;;;32.13;22.25;;;9.30;94.30;;;;;;5012198;28;20062;-72
2021/12/27 09:57:25;;;;;;;31.80;21.98;;;9.40;94.40;;;;;;5018528;28;20041;-74
2021/12/27 09:59:50;;;;;;;30.83;20.63;;;9.30;94.40;;;;;;5007814;28;20018;-74
2021/12/27 10:02:16;;;;;;;33.60;21.52;;;9.40;94.40;;;;;;5010611;28;20026;-74
2021/12/27 10:04:45;;;;;;;32.25;22.20;;;9.40;94.40;;;;;;5014791;28;20323;-73
2021/12/27 10:07:19;;;;;;;32.40;22.15;;;9.40;94.40;;;;;;5041861;28;20049;-73
2021/12/27 10:09:45;;;;;;;31.60;20.90;;;9.40;94.40;;;;;;5011344;28;20027;-74
2021/12/27 10:12:10;;;;;;;31.17;20.33;;;9.40;94.40;;;;;;5012471;28;20015;-75
2021/12/27 10:14:37;;;;;;;32.08;21.17;;;9.40;94.40;;;;;;5010907;28;20037;-75
2021/12/27 10:17:12;;;;;;;32.20;21.95;;;9.40;94.40;;;;;;5014493;28;20027;-74
2021/12/27 10:19:38;;;;;;;;;;;9.50;94.50;;;;;;5018053;28;20022;-74
2021/12/27 10:22:10;;;;;;;28.02;20.60;;;9.50;94.50;;;;;;5013270;28;19961;-72
2021/12/27 10:24:37;;;;;;;28.05;20.45;;;9.50;94.50;;;;;;5014744;28;20035;-68
2021/12/27 10:27:02;;;;;;;27.42;20.98;;;9.50;94.50;;;;;;5011637;28;20023;-72
2021/12/27 10:29:30;;;;;;;29.65;20.42;;;9.50;94.40;;;;;;5020546;28;20078;-75
2021/12/27 10:32:07;;;;;;;28.23;20.20;;;9.50;94.50;;;;;;5033528;28;20038;-71
2021/12/27 10:34:39;;;;;;;29.60;21.85;;;9.60;94.50;;;;;;5011893;28;20015;-73
2021/12/27 10:37:10;;;;;;;29.33;22.23;;;9.60;94.40;;;;;;5015606;28;20102;-72
2021/12/27 10:39:54;;;;;;;26.05;20.00;;;9.50;94.40;;;;;;5020391;28;20018;-72
2021/12/27 10:42:24;;;;;;;25.30;18.17;;;9.60;94.40;;;;;;5006767;28;20136;-76
2021/12/27 10:44:53;;;;;;;24.80;18.30;;;9.60;94.40;;;;;;5016902;28;20289;-69
2021/12/27 10:47:28;;;;;;;24.98;18.63;;;9.60;94.30;;;;;;5015205;28;20026;-73
2021/12/27 10:49:54;;;;;;;;;;;9.60;94.40;;;;;;5010351;28;20019;-73
2021/12/27 10:52:20;;;;;;;23.45;17.45;;;9.60;94.40;;;;;;5011071;28;19974;-74
2021/12/27 10:54:46;;;;;;;27.17;18.77;;;9.70;94.30;;;;;;5008482;28;20018;-70
2021/12/27 10:57:14;;;;;;;24.50;18.30;;;9.70;94.30;;;;;;5027842;28;20042;-73
2021/12/27 10:59:39;;;;;;;23.52;18.25;;;9.70;94.30;;;;;;5014306;28;20018;-72
2021/12/27 11:02:10;;;;;;;24.25;17.40;;;9.80;94.30;;;;;;5010921;28;20021;-73
2021/12/27 11:04:37;;;;;;;21.92;15.70;;;9.80;94.30;;;;;;5015824;28;20030;-73
2021/12/27 11:07:04;;;;;;;21.98;15.50;;;9.90;94.30;;;;;;5016844;28;20042;-73
2021/12/27 11:09:31;;;;;;;23.40;16.23;;;9.90;94.20;;;;;;5017994;28;20053;-71
2021/12/27 11:11:57;;;;;;;21.38;15.73;;;10.00;94.30;;;;;;5019648;28;20416;-72
2021/12/27 11:14:23;;;;;;;20.60;14.80;;;10.00;94.20;;;;;;5015421;28;20014;-72
2021/12/27 11:16:49;;;;;;;21.90;15.45;;;10.10;94.20;;;;;;5013409;28;20061;-71
2021/12/27 11:19:15;;;;;;;20.17;14.13;;;10.10;94.10;;;;;;5014926;28;20030;-68
2021/12/27 11:21:41;;;;;;;22.42;14.02;;;10.10;93.90;;;;;;5008872;28;20051;-70
2021/12/27 11:24:08;;;;;;;19.83;14.05;;;10.20;93.80;;;;;;5008425;28;20049;-69
2021/12/27 11:26:37;;;;;;;21.58;15.55;;;10.20;93.70;;;;;;5011803;28;20019;-72
2021/12/27 11:29:09;;;;;;;19.63;14.20;;;10.30;93.60;;;;;;5014169;28;20048;-69
2021/12/27 11:31:35;;;;;;;22.58;14.38;;;10.30;93.40;;;;;;5009043;28;20311;-69
2021/12/27 11:34:04;;;;;;;20.67;13.93;;;10.30;93.40;;;;;;5009820;28;20042;-69
2021/12/27 11:36:38;;;;;;;19.27;12.77;;;10.30;93.30;;;;;;5011933;28;20074;-71
2021/12/27 11:39:25;;;;;;;20.77;12.48;;;10.30;93.30;;;;;;5013090;28;20030;-71
2021/12/27 11:42:05;;;;;;;22.63;13.65;;;10.40;93.20;;;;;;5010874;28;20022;-70
2021/12/27 11:44:53;;;;;;;21.10;12.10;;;10.40;93.10;;;;;;5006117;28;20102;-71
2021/12/27 11:47:32;;;;;;;18.60;11.60;;;10.50;93.10;;;;;;5008597;28;20026;-72
2021/12/27 11:50:06;;;;;;;19.05;11.02;;;10.50;93.00;;;;;;5012142;28;20022;-72
2021/12/27 11:52:35;;;;;;;19.98;11.05;;;10.40;92.80;;;;;;5006898;28;20053;-72
2021/12/27 11:55:06;;;;;;;19.50;11.00;;;10.40;92.80;;;;;;5004688;28;20041;-73
2021/12/27 11:57:38;;;;;;;15.73;9.88;;;10.50;92.80;;;;;;5003875;28;20092;-72
2021/12/27 12:00:24;;;;;;;16.25;10.75;;;10.50;92.70;;;;;;5008372;28;20048;-72
2021/12/27 12:02:55;;;;;;;18.63;10.07;;;10.50;92.80;;;;;;5005618;28;20125;-72
2021/12/27 12:05:44;;;;;;;26.58;11.63;;;10.50;92.80;;;;;;5038378;28;20208;-72
2021/12/27 12:08:37;;;;;;;17.63;9.98;;;10.50;92.80;;;;;;5007614;28;20034;-72
2021/12/27 12:11:08;;;;;;;20.40;10.70;;;10.40;92.90;;;;;;5023478;28;20094;-71
2021/12/27 12:13:36;;;;;;;13.77;9.45;;;10.40;92.90;;;;;;5023036;28;20045;-72
2021/12/27 12:16:10;;;;;;;17.40;9.50;;;10.50;92.90;;;;;;5015913;28;20038;-71
2021/12/27 12:18:39;;;;;;;17.67;9.43;;;10.50;92.80;;;;;;5019026;28;20030;-72
2021/12/27 12:21:06;;;;;;;17.35;10.18;;;10.50;92.80;;;;;;5019695;28;20049;-71
2021/12/27 12:23:36;;;;;;;16.67;9.38;;;10.50;92.70;;;;;;5016278;28;20030;-72
2021/12/27 12:26:04;;;;;;;16.75;9.57;;;10.60;92.60;;;;;;5016825;28;20026;-71
2021/12/27 12:28:30;;;;;;;18.77;9.65;;;10.60;92.60;;;;;;5025650;28;20085;-72
2021/12/27 12:30:57;;;;;;;18.23;9.18;;;10.60;92.60;;;;;;5014585;28;20030;-72
2021/12/27 12:33:26;;;;;;;19.65;9.77;;;10.60;92.60;;;;;;5022119;28;20070;-71
2021/12/27 12:36:04;;;;;;;13.45;8.48;;;10.60;92.50;;;;;;5025818;28;20018;-72
2021/12/27 12:38:38;;;;;;;14.57;8.25;;;10.60;92.50;;;;;;5014039;28;21231;-72
2021/12/27 12:41:20;;;;;;;16.08;7.80;;;10.60;92.60;;;;;;5016652;28;20047;-68